Time;durP1;ratioP1;P1;durP2;ratioP2;P2;SDS_P1;SDS_P2;PMS_P1;PMS_P2;Temp;Humidity;BMP_temperature;BMP_pressure;BME280_temperature;BME280_humidity;BME280_pressure;Samples;Min_cycle;Max_cycle;Signal;HPM_P1;HPM_P2
2023/08/25 00:01:39;;;;;;;9.40;6.38;;;;;;;24.88;79.03;100463.28;5014011;28;20040;-66
2023/08/25 00:04:05;;;;;;;9.00;6.55;;;;;;;24.88;79.02;100465.16;5032264;28;20489;-66
2023/08/25 00:06:31;;;;;;;8.10;6.38;;;;;;;24.81;79.50;100460.75;5018756;28;20072;-66
2023/08/25 00:08:56;;;;;;;8.25;6.85;;;;;;;24.74;79.93;100454.75;5014331;28;20038;-65
2023/08/25 00:11:22;;;;;;;6.95;6.28;;;;;;;24.70;80.17;100450.97;5029477;28;20116;-65
2023/08/25 00:13:47;;;;;;;6.72;5.78;;;;;;;24.67;80.27;100448.75;5018126;28;20168;-64
2023/08/25 00:16:12;;;;;;;7.28;6.55;;;;;;;24.62;80.64;100442.53;5015294;28;20042;-64
2023/08/25 00:18:38;;;;;;;7.35;6.55;;;;;;;24.56;79.81;100451.50;5014519;28;20041;-64
2023/08/25 00:21:04;;;;;;;8.35;6.25;;;;;;;24.65;78.86;100442.06;5014948;28;20072;-64
2023/08/25 00:23:30;;;;;;;8.95;5.57;;;;;;;24.75;77.54;100448.38;5030035;28;20043;-66
2023/08/25 00:25:56;;;;;;;7.55;5.72;;;;;;;24.78;77.38;100455.91;5024384;28;20392;-69
2023/08/25 00:28:21;;;;;;;6.47;5.88;;;;;;;24.81;77.21;100451.97;5025754;28;20040;-69
2023/08/25 00:30:50;;;;;;;6.20;5.40;;;;;;;24.88;77.34;100449.16;5023611;28;20041;-69
2023/08/25 00:33:16;;;;;;;7.57;6.00;;;;;;;24.90;77.22;100439.88;5004796;28;21298;-68
2023/08/25 00:35:42;;;;;;;8.75;5.60;;;;;;;24.91;77.47;100441.50;5000838;28;20054;-69
2023/08/25 00:38:07;;;;;;;6.75;5.85;;;;;;;24.89;77.72;100432.13;5007900;28;20106;-68
2023/08/25 00:40:37;;;;;;;8.65;6.32;;;;;;;24.85;77.99;100437.13;5001184;28;20030;-69
2023/08/25 00:43:03;;;;;;;8.27;5.60;;;;;;;24.80;78.50;100445.81;5015457;28;20033;-69
2023/08/25 00:45:30;;;;;;;10.25;5.93;;;;;;;24.77;78.80;100456.16;5001694;28;20045;-68
2023/08/25 00:47:56;;;;;;;5.93;5.32;;;;;;;24.74;78.52;100441.44;4999229;28;21430;-69
2023/08/25 00:50:22;;;;;;;9.93;6.20;;;;;;;24.73;78.65;100445.16;5001389;28;20049;-69
2023/08/25 00:52:47;;;;;;;7.28;5.75;;;;;;;24.68;79.43;100436.25;5005596;28;20062;-68
2023/08/25 00:55:13;;;;;;;6.82;5.70;;;;;;;24.57;80.57;100423.81;5000519;28;20117;-68
2023/08/25 00:57:38;;;;;;;10.23;6.50;;;;;;;24.47;81.79;100424.44;5000873;28;20033;-68
2023/08/25 01:00:06;;;;;;;8.82;6.63;;;;;;;24.38;82.63;100428.50;5015813;28;20041;-70
2023/08/25 01:02:31;;;;;;;8.27;6.25;;;;;;;24.40;82.57;100429.06;5005423;28;20096;-68
2023/08/25 01:04:57;;;;;;;9.95;6.20;;;;;;;24.40;81.99;100429.88;4999816;28;20038;-69
2023/08/25 01:07:22;;;;;;;7.05;6.13;;;;;;;24.43;81.43;100421.44;4997143;28;20148;-69
2023/08/25 01:09:49;;;;;;;10.65;6.50;;;;;;;24.41;81.21;100415.53;5002129;28;20029;-69
2023/08/25 01:12:31;;;;;;;6.55;5.95;;;;;;;24.39;81.28;100414.94;5014847;28;20026;-69
2023/08/25 01:15:13;;;;;;;7.53;6.22;;;;;;;24.37;81.12;100405.59;5006474;28;20033;-69
2023/08/25 01:18:10;;;;;;;7.50;5.82;;;;;;;24.31;82.72;100403.84;5000081;28;20037;-69
2023/08/25 01:20:38;;;;;;;10.07;6.38;;;;;;;24.27;82.39;100408.84;5001857;28;20046;-68
2023/08/25 01:23:25;;;;;;;7.40;6.47;;;;;;;24.25;82.54;100413.59;4999591;28;20397;-68
2023/08/25 01:25:53;;;;;;;7.20;6.05;;;;;;;24.30;81.30;100408.38;4999053;28;20029;-67
2023/08/25 01:28:20;;;;;;;7.35;6.28;;;;;;;24.32;80.84;100400.97;5002967;28;21430;-68
2023/08/25 01:30:48;;;;;;;7.25;6.55;;;;;;;24.32;80.79;100411.59;5003655;28;20518;-69
2023/08/25 01:33:15;;;;;;;7.10;6.40;;;;;;;24.32;81.46;100410.81;5004521;28;20045;-68
2023/08/25 01:35:47;;;;;;;9.57;6.28;;;;;;;24.29;81.74;100428.06;4998922;28;20073;-67
2023/08/25 01:38:44;;;;;;;7.47;6.63;;;;;;;24.22;83.70;100421.22;5015078;28;20037;-68
2023/08/25 01:41:23;;;;;;;7.15;6.10;;;;;;;24.19;83.57;100416.34;4997772;28;20132;-68
2023/08/25 01:43:51;;;;;;;8.02;6.40;;;;;;;24.14;84.36;100435.69;5011822;28;20037;-68
2023/08/25 01:46:18;;;;;;;9.73;6.32;;;;;;;24.06;85.15;100426.22;4997943;28;20038;-68
2023/08/25 01:48:51;;;;;;;11.52;7.03;;;;;;;23.96;86.58;100428.66;4999493;28;20071;-67
2023/08/25 01:51:17;;;;;;;7.20;6.38;;;;;;;23.89;86.88;100425.31;5004701;28;20448;-64
2023/08/25 01:53:52;;;;;;;9.07;6.18;;;;;;;23.93;86.53;100431.78;5001937;28;20037;-65
2023/08/25 01:56:17;;;;;;;7.95;7.15;;;;;;;23.93;86.19;100426.47;4997386;28;20041;-65
2023/08/25 01:58:43;;;;;;;7.18;6.47;;;;;;;23.95;86.05;100424.38;4999207;28;20080;-65
2023/08/25 02:01:08;;;;;;;10.10;7.07;;;;;;;23.96;86.07;100414.56;4997945;28;20296;-65
2023/08/25 02:03:34;;;;;;;12.00;6.97;;;;;;;23.93;86.99;100407.03;4999258;28;20029;-65
2023/08/25 02:05:59;;;;;;;8.65;6.88;;;;;;;23.90;86.93;100408.31;5000829;28;20038;-66
2023/08/25 02:08:24;;;;;;;6.80;6.07;;;;;;;23.90;86.03;100408.31;4999298;28;20029;-65
2023/08/25 02:10:50;;;;;;;7.90;6.13;;;;;;;23.97;85.11;100406.34;5004330;28;20026;-66
2023/08/25 02:13:15;;;;;;;9.60;6.50;;;;;;;23.99;84.06;100401.59;5014815;28;20498;-66
2023/08/25 02:15:45;;;;;;;7.25;5.80;;;;;;;24.05;83.07;100402.50;4999110;28;21365;-66
2023/08/25 02:18:11;;;;;;;7.22;5.93;;;;;;;24.07;82.57;100409.22;4997046;28;20025;-66
2023/08/25 02:20:40;;;;;;;6.32;5.82;;;;;;;24.06;82.16;100412.94;5001836;28;20493;-66
2023/08/25 02:23:07;;;;;;;11.32;6.40;;;;;;;24.09;81.82;100419.63;4999028;28;20084;-65
2023/08/25 02:25:32;;;;;;;6.63;5.88;;;;;;;24.13;81.94;100413.59;4998293;28;20398;-65
2023/08/25 02:27:58;;;;;;;7.03;6.32;;;;;;;24.13;82.35;100413.59;4997311;28;20062;-64
2023/08/25 02:30:23;;;;;;;11.13;6.82;;;;;;;24.09;83.14;100411.66;4996792;28;20033;-65
2023/08/25 02:32:49;;;;;;;9.77;6.88;;;;;;;24.06;83.83;100412.13;5002070;28;20156;-66
2023/08/25 02:35:15;;;;;;;10.35;6.22;;;;;;;24.04;84.07;100411.53;5001760;28;20056;-65
2023/08/25 02:38:07;;;;;;;6.93;6.03;;;;;;;23.98;84.25;100405.31;5003996;28;20041;-64
2023/08/25 02:40:33;;;;;;;6.57;5.65;;;;;;;24.01;83.14;100404.84;5000678;28;20044;-65
2023/08/25 02:43:00;;;;;;;7.88;5.70;;;;;;;24.11;81.47;100413.00;5004036;28;20033;-65
2023/08/25 02:45:26;;;;;;;7.75;5.28;;;;;;;24.14;80.81;100415.19;4996845;28;20066;-66
2023/08/25 02:47:53;;;;;;;7.25;5.35;;;;;;;24.10;81.30;100405.28;4999522;28;20041;-66
2023/08/25 02:50:19;;;;;;;7.82;6.07;;;;;;;23.99;82.52;100417.56;5002495;28;20041;-65
2023/08/25 02:52:45;;;;;;;9.38;6.40;;;;;;;23.88;84.25;100417.56;4999294;28;20107;-65
2023/08/25 02:55:11;;;;;;;8.75;7.03;;;;;;;23.82;85.66;100406.00;4997967;28;20033;-64
2023/08/25 02:57:37;;;;;;;8.23;6.70;;;;;;;23.67;87.79;100403.81;5000376;28;20032;-64
2023/08/25 03:00:04;;;;;;;10.98;6.97;;;;;;;23.56;88.70;100411.81;4998940;28;20478;-65
2023/08/25 03:02:29;;;;;;;9.50;7.28;;;;;;;23.49;89.59;100404.72;5000181;28;20030;-65
2023/08/25 03:04:55;;;;;;;10.05;6.60;;;;;;;23.50;89.56;100392.22;4997306;28;21287;-66
2023/08/25 03:07:20;;;;;;;8.50;6.68;;;;;;;23.53;88.71;100383.81;4997536;28;20041;-66
2023/08/25 03:09:46;;;;;;;7.00;6.30;;;;;;;23.62;87.57;100386.97;4998967;28;20030;-65
2023/08/25 03:12:11;;;;;;;7.55;6.38;;;;;;;23.67;86.42;100392.34;5011982;28;20029;-64
2023/08/25 03:14:36;;;;;;;8.80;6.38;;;;;;;23.72;85.46;100393.28;5002066;28;20033;-64
2023/08/25 03:17:02;;;;;;;8.50;6.18;;;;;;;23.74;84.72;100393.06;4994327;28;20037;-65
2023/08/25 03:19:27;;;;;;;10.77;6.93;;;;;;;23.72;84.57;100401.25;4993217;28;20485;-64
2023/08/25 03:21:53;;;;;;;7.65;6.03;;;;;;;23.75;84.87;100397.34;4998615;28;20045;-65
2023/08/25 03:24:18;;;;;;;10.15;7.22;;;;;;;23.67;86.63;100403.00;4996821;28;20052;-64
2023/08/25 03:26:44;;;;;;;9.52;7.65;;;;;;;23.61;87.75;100407.41;4997100;28;20084;-65
2023/08/25 03:29:09;;;;;;;10.52;6.63;;;;;;;23.53;89.25;100402.44;5000127;28;21992;-66
2023/08/25 03:31:35;;;;;;;10.57;7.00;;;;;;;23.45;89.88;100403.56;4998097;28;20509;-65
2023/08/25 03:34:00;;;;;;;12.57;7.95;;;;;;;23.43;89.75;100400.31;4998068;28;20064;-65
2023/08/25 03:36:26;;;;;;;11.23;7.72;;;;;;;23.44;89.72;100401.94;4997959;28;20535;-65
2023/08/25 03:38:51;;;;;;;10.40;7.50;;;;;;;23.43;90.03;100395.00;5014735;28;20025;-66
2023/08/25 03:41:17;;;;;;;14.60;8.18;;;;;;;23.42;89.95;100396.03;5011691;28;20036;-65
2023/08/25 03:43:42;;;;;;;16.08;8.02;;;;;;;23.42;90.43;100390.72;5007791;28;20037;-65
2023/08/25 03:46:08;;;;;;;18.35;8.43;;;;;;;23.38;91.03;100394.06;5001048;28;20394;-65
2023/08/25 03:48:33;;;;;;;14.65;7.35;;;;;;;23.34;91.30;100392.91;5002592;28;20069;-65
2023/08/25 03:50:58;;;;;;;9.93;6.70;;;;;;;23.31;91.88;100394.19;5002328;28;20092;-66
2023/08/25 03:53:24;;;;;;;11.82;7.65;;;;;;;23.29;92.15;100393.59;5002982;28;20048;-70
2023/08/25 03:55:50;;;;;;;8.20;7.15;;;;;;;23.29;92.36;100406.88;5002524;28;20040;-69
2023/08/25 03:58:15;;;;;;;11.48;7.65;;;;;;;23.28;92.22;100405.25;5007297;28;20022;-69
2023/08/25 04:00:41;;;;;;;9.93;7.20;;;;;;;23.32;92.08;100402.97;5001296;28;20038;-68
2023/08/25 04:03:07;;;;;;;12.77;7.47;;;;;;;23.30;92.29;100403.19;5001130;28;20037;-68
2023/08/25 04:05:33;;;;;;;8.55;7.10;;;;;;;23.30;92.34;100397.88;5001163;28;20148;-68
2023/08/25 04:07:58;;;;;;;7.50;6.75;;;;;;;23.29;91.90;100390.94;4998475;28;20808;-67
2023/08/25 04:10:26;;;;;;;9.77;7.07;;;;;;;23.28;92.24;100399.13;5002949;28;20037;-67
2023/08/25 04:12:51;;;;;;;8.45;7.47;;;;;;;23.26;92.24;100402.03;5014050;28;20711;-68
2023/08/25 04:15:20;;;;;;;7.75;6.95;;;;;;;23.29;92.03;100404.22;5000812;28;20130;-68
2023/08/25 04:17:45;;;;;;;10.05;6.88;;;;;;;23.33;90.81;100400.06;5003534;28;20040;-68
2023/08/25 04:20:11;;;;;;;9.90;6.88;;;;;;;23.39;89.85;100401.81;5001409;28;20037;-67
2023/08/25 04:22:36;;;;;;;7.50;6.80;;;;;;;23.49;88.95;100412.69;5002038;28;20080;-67
2023/08/25 04:25:02;;;;;;;8.38;6.63;;;;;;;23.48;89.41;100413.75;4999469;28;20057;-67
2023/08/25 04:27:28;;;;;;;9.10;7.03;;;;;;;23.48;89.83;100410.25;5003054;28;20610;-67
2023/08/25 04:29:53;;;;;;;8.73;6.82;;;;;;;23.52;89.33;100421.25;5000293;28;20570;-68
2023/08/25 04:32:19;;;;;;;7.80;6.88;;;;;;;23.57;88.57;100426.72;5005715;28;20046;-67
2023/08/25 04:34:44;;;;;;;8.50;7.03;;;;;;;23.63;87.16;100417.81;5001343;28;20044;-67
2023/08/25 04:37:10;;;;;;;9.52;6.78;;;;;;;23.69;86.83;100423.00;5020035;28;20052;-68
2023/08/25 04:39:35;;;;;;;10.23;6.70;;;;;;;23.71;86.49;100414.78;5006017;28;20045;-68
2023/08/25 04:42:01;;;;;;;8.98;6.40;;;;;;;23.67;86.54;100424.28;5005724;28;20059;-68
2023/08/25 04:44:26;;;;;;;6.65;6.05;;;;;;;23.58;86.16;100421.19;5002225;28;20037;-67
2023/08/25 04:46:51;;;;;;;9.30;6.72;;;;;;;23.62;86.06;100417.03;5000264;28;20896;-68
2023/08/25 04:49:17;;;;;;;11.60;7.50;;;;;;;23.72;85.97;100429.72;5001755;28;20068;-68
2023/08/25 04:51:42;;;;;;;10.70;7.00;;;;;;;23.80;85.88;100416.06;5005181;28;20053;-68
2023/08/25 04:54:09;;;;;;;11.75;6.82;;;;;;;23.75;87.47;100431.91;4998327;28;20037;-69
2023/08/25 04:56:34;;;;;;;9.10;7.53;;;;;;;23.65;88.63;100439.66;4997962;28;20113;-68
2023/08/25 04:59:00;;;;;;;7.82;7.03;;;;;;;23.62;89.34;100440.94;5003158;28;20040;-68
2023/08/25 05:01:25;;;;;;;7.63;6.43;;;;;;;23.64;89.26;100430.06;5000827;28;20038;-68
2023/08/25 05:03:51;;;;;;;8.68;7.22;;;;;;;23.66;89.06;100434.09;4998819;28;20045;-67
2023/08/25 05:06:17;;;;;;;8.52;6.72;;;;;;;23.75;88.18;100431.91;5000013;28;20037;-68
2023/08/25 05:08:42;;;;;;;11.10;7.53;;;;;;;23.81;87.78;100421.16;4997718;28;20083;-67
2023/08/25 05:11:09;;;;;;;9.07;7.53;;;;;;;23.83;87.74;100423.59;5008566;28;20056;-68
2023/08/25 05:13:34;;;;;;;10.45;7.57;;;;;;;23.84;87.66;100419.88;5012934;28;20064;-68
2023/08/25 05:16:00;;;;;;;13.48;7.47;;;;;;;23.85;87.75;100426.81;4997513;28;20025;-68
2023/08/25 05:18:25;;;;;;;17.02;9.57;;;;;;;23.88;87.78;100430.88;5000289;28;20038;-68
2023/08/25 05:20:56;;;;;;;9.77;7.43;;;;;;;23.92;87.52;100424.03;4996869;28;20052;-67
2023/08/25 05:23:22;;;;;;;9.35;6.90;;;;;;;23.93;87.51;100421.16;4999416;28;21163;-68
2023/08/25 05:25:48;;;;;;;11.75;7.38;;;;;;;23.91;87.96;100414.44;4998984;28;20478;-68
2023/08/25 05:28:13;;;;;;;8.82;7.05;;;;;;;23.90;87.98;100416.28;5006494;28;20133;-67
2023/08/25 05:30:38;;;;;;;7.82;6.53;;;;;;;23.90;88.23;100418.16;4999702;28;20041;-68
2023/08/25 05:33:04;;;;;;;9.93;7.32;;;;;;;23.89;88.46;100420.00;5019168;28;20025;-68
2023/08/25 05:35:29;;;;;;;7.70;6.45;;;;;;;23.92;88.17;100421.38;4958572;28;1187940;-68
2023/08/25 05:37:55;;;;;;;6.88;6.15;;;;;;;23.95;87.90;100427.06;4999927;28;21738;-67
2023/08/25 05:40:20;;;;;;;8.13;6.65;;;;;;;23.99;87.89;100425.53;5007243;28;20065;-68
2023/08/25 05:42:46;;;;;;;8.38;6.97;;;;;;;24.03;87.66;100423.22;4998515;28;20041;-68
2023/08/25 05:45:11;;;;;;;9.63;7.05;;;;;;;24.09;87.85;100430.28;5000087;28;20037;-67
2023/08/25 05:47:37;;;;;;;9.75;7.20;;;;;;;24.09;87.72;100431.09;5006734;28;20080;-67
2023/08/25 05:50:02;;;;;;;11.07;6.47;;;;;;;24.06;87.78;100430.75;5002120;28;20591;-66
2023/08/25 05:52:28;;;;;;;12.23;7.05;;;;;;;24.07;88.19;100438.50;5002052;28;20037;-66
2023/08/25 05:54:53;;;;;;;10.00;6.68;;;;;;;24.12;88.21;100433.25;5000089;28;20119;-67
2023/08/25 05:57:18;;;;;;;10.38;6.53;;;;;;;24.17;88.20;100433.38;4997299;28;20088;-66
2023/08/25 05:59:44;;;;;;;13.65;7.18;;;;;;;24.23;87.84;100425.50;5008596;28;20029;-67
2023/08/25 06:02:09;;;;;;;9.55;6.78;;;;;;;24.39;86.95;100424.78;5007296;28;20045;-67
2023/08/25 06:04:35;;;;;;;10.48;6.63;;;;;;;24.50;86.56;100413.31;4997817;28;20033;-67
2023/08/25 06:07:00;;;;;;;8.15;6.75;;;;;;;24.59;86.31;100417.19;4998025;28;20048;-67
2023/08/25 06:09:26;;;;;;;8.80;6.57;;;;;;;24.69;86.13;100417.38;4998594;28;20374;-64
2023/08/25 06:11:53;;;;;;;10.23;7.10;;;;;;;24.76;85.69;100410.03;5016163;28;20103;-64
2023/08/25 06:14:18;;;;;;;9.15;6.57;;;;;;;24.85;85.16;100415.00;5000313;28;20041;-63
2023/08/25 06:16:44;;;;;;;7.00;6.00;;;;;;;24.93;84.61;100417.28;4998582;28;20119;-64
2023/08/25 06:19:10;;;;;;;7.38;5.97;;;;;;;25.03;84.70;100422.81;5001143;28;20041;-64
2023/08/25 06:21:35;;;;;;;8.70;6.82;;;;;;;25.10;84.32;100423.44;5000625;28;20041;-64
2023/08/25 06:24:01;;;;;;;11.05;7.25;;;;;;;25.10;84.10;100424.25;4998598;28;20037;-64
2023/08/25 06:26:26;;;;;;;13.90;7.45;;;;;;;25.13;83.91;100414.97;5002335;28;20045;-64
2023/08/25 06:28:52;;;;;;;9.77;6.47;;;;;;;25.19;83.83;100418.53;5003149;28;20030;-64
2023/08/25 06:31:18;;;;;;;7.25;6.53;;;;;;;25.17;83.72;100405.44;5004341;28;20085;-64
2023/08/25 06:33:45;;;;;;;8.52;5.97;;;;;;;25.26;83.60;100414.66;4998699;28;20379;-64
2023/08/25 06:36:10;;;;;;;9.52;6.60;;;;;;;25.28;83.65;100412.56;5005479;28;20053;-64
2023/08/25 06:38:36;;;;;;;10.45;6.10;;;;;;;25.38;83.18;100407.38;5003654;28;20825;-63
2023/08/25 06:41:01;;;;;;;7.75;6.20;;;;;;;25.39;83.40;100409.00;4999914;28;20048;-63
2023/08/25 06:43:27;;;;;;;12.80;6.20;;;;;;;25.39;83.34;100411.69;5015047;28;20044;-63
2023/08/25 06:45:52;;;;;;;11.65;7.25;;;;;;;25.47;83.30;100415.78;4996590;28;21453;-63
2023/08/25 06:48:18;;;;;;;10.57;6.60;;;;;;;25.51;82.71;100408.94;5007717;28;20045;-64
2023/08/25 06:50:43;;;;;;;7.72;6.60;;;;;;;25.60;83.21;100414.63;5002408;28;20029;-63
2023/08/25 06:53:09;;;;;;;7.57;6.38;;;;;;;25.70;82.56;100425.50;4997230;28;20041;-63
2023/08/25 06:55:34;;;;;;;7.55;6.20;;;;;;;25.76;82.26;100419.97;4997483;28;20638;-65
2023/08/25 06:58:00;;;;;;;8.77;6.15;;;;;;;25.88;82.42;100417.22;4997413;28;20440;-63
2023/08/25 07:00:26;;;;;;;15.60;6.80;;;;;;;25.93;82.29;100414.63;5002457;28;20033;-64
2023/08/25 07:02:52;;;;;;;10.20;6.15;;;;;;;25.91;82.38;100413.25;4996203;28;20116;-63
2023/08/25 07:05:18;;;;;;;12.50;7.05;;;;;;;26.00;82.05;100409.06;5001395;28;21089;-64
2023/08/25 07:07:44;;;;;;;12.10;7.00;;;;;;;26.07;81.79;100410.50;4998422;28;20034;-64
2023/08/25 07:10:12;;;;;;;14.82;6.43;;;;;;;26.13;81.77;100422.88;5004241;28;20041;-64
2023/08/25 07:12:39;;;;;;;7.63;5.82;;;;;;;26.12;81.55;100410.56;4997551;28;20266;-64
2023/08/25 07:15:07;;;;;;;10.35;6.00;;;;;;;26.13;81.59;100416.72;5001738;28;20029;-64
2023/08/25 07:17:33;;;;;;;9.93;6.25;;;;;;;26.13;80.96;100414.88;5001571;28;20052;-64
2023/08/25 07:19:58;;;;;;;16.85;7.05;;;;;;;26.19;81.00;100409.59;5000648;28;20029;-64
2023/08/25 07:22:25;;;;;;;9.35;6.13;;;;;;;26.25;80.98;100412.06;4997643;28;20033;-64
2023/08/25 07:24:53;;;;;;;7.03;6.30;;;;;;;26.38;80.25;100416.25;4998053;28;20152;-65
2023/08/25 07:27:21;;;;;;;6.90;6.20;;;;;;;26.50;80.10;100416.09;4999720;28;20038;-64
2023/08/25 07:29:47;;;;;;;6.47;5.88;;;;;;;26.53;79.76;100411.06;5001290;28;20038;-64
2023/08/25 07:32:12;;;;;;;10.60;6.43;;;;;;;26.56;79.35;100407.09;4997019;28;20061;-64
2023/08/25 07:34:38;;;;;;;6.47;5.88;;;;;;;26.54;79.09;100412.69;5009981;28;20030;-64
2023/08/25 07:37:03;;;;;;;8.13;5.38;;;;;;;26.58;78.88;100410.31;5009772;28;20054;-64
2023/08/25 07:39:29;;;;;;;9.57;6.65;;;;;;;26.61;79.17;100413.31;5000867;28;21614;-63
2023/08/25 07:41:55;;;;;;;6.85;5.85;;;;;;;26.57;79.10;100412.19;5014570;28;20074;-63
2023/08/25 07:44:20;;;;;;;9.38;6.53;;;;;;;26.63;78.40;100410.38;5012285;28;20053;-63
2023/08/25 07:46:45;;;;;;;10.20;5.85;;;;;;;26.70;78.16;100403.78;4997842;28;20038;-64
2023/08/25 07:49:11;;;;;;;8.27;5.57;;;;;;;26.81;78.26;100411.91;5002344;28;20072;-63
2023/08/25 07:51:37;;;;;;;7.88;6.35;;;;;;;26.86;78.17;100406.59;4999018;28;20444;-64
2023/08/25 07:54:02;;;;;;;7.10;6.43;;;;;;;26.97;77.81;100416.34;4995598;28;20041;-63
2023/08/25 07:56:28;;;;;;;9.32;6.00;;;;;;;27.07;77.29;100417.25;4998723;28;20756;-63
2023/08/25 07:58:54;;;;;;;6.63;5.95;;;;;;;27.16;77.09;100414.09;4995604;28;20041;-63
2023/08/25 08:01:20;;;;;;;8.73;5.60;;;;;;;27.28;76.54;100420.91;4998061;28;20033;-63
2023/08/25 08:03:45;;;;;;;9.43;6.63;;;;;;;27.37;77.01;100426.59;5002071;28;20038;-63
2023/08/25 08:06:11;;;;;;;11.20;6.32;;;;;;;27.58;76.64;100422.16;4995729;28;20060;-63
2023/08/25 08:08:37;;;;;;;6.68;6.07;;;;;;;27.72;76.03;100429.53;4998317;28;20087;-63
2023/08/25 08:11:03;;;;;;;8.75;6.13;;;;;;;27.88;75.73;100419.72;5007220;28;20048;-63
2023/08/25 08:13:29;;;;;;;8.85;6.13;;;;;;;27.99;75.07;100424.03;5005691;28;20033;-63
2023/08/25 08:15:55;;;;;;;8.80;6.07;;;;;;;28.19;74.93;100422.53;4994138;28;20033;-63
2023/08/25 08:18:20;;;;;;;9.40;6.13;;;;;;;28.34;74.40;100419.94;5000664;28;20041;-63
2023/08/25 08:20:46;;;;;;;9.95;6.28;;;;;;;28.38;73.79;100423.69;4995077;28;20623;-63
2023/08/25 08:23:11;;;;;;;9.18;5.53;;;;;;;28.46;73.19;100417.81;4996993;28;20041;-63
2023/08/25 08:25:37;;;;;;;7.03;5.70;;;;;;;28.55;71.72;100421.59;4998223;28;20512;-63
2023/08/25 08:28:02;;;;;;;10.38;5.90;;;;;;;28.58;71.77;100428.31;5000377;28;20034;-63
2023/08/25 08:30:28;;;;;;;9.73;6.10;;;;;;;28.76;71.06;100435.06;5023419;28;20920;-63
2023/08/25 08:32:53;;;;;;;7.07;5.80;;;;;;;29.00;70.26;100437.00;5002695;28;20043;-63
2023/08/25 08:35:19;;;;;;;8.35;5.38;;;;;;;29.20;68.54;100433.53;5004984;28;20572;-64
2023/08/25 08:37:44;;;;;;;6.72;5.85;;;;;;;29.39;68.67;100431.88;5014572;28;20041;-63
2023/08/25 08:40:10;;;;;;;9.73;5.30;;;;;;;29.55;67.77;100434.59;5004097;28;20076;-63
2023/08/25 08:42:37;;;;;;;7.75;5.30;;;;;;;29.67;67.04;100432.44;5006484;28;20033;-63
2023/08/25 08:45:08;;;;;;;7.57;5.70;;;;;;;29.65;65.69;100437.25;5009054;28;20033;-63
2023/08/25 08:47:35;;;;;;;9.00;5.72;;;;;;;29.54;66.21;100432.97;5003125;28;20033;-63
2023/08/25 08:50:02;;;;;;;7.32;4.78;;;;;;;29.55;65.67;100430.03;5019260;28;20041;-63
2023/08/25 08:52:29;;;;;;;7.78;5.22;;;;;;;29.54;65.37;100428.41;5018008;28;20428;-63
2023/08/25 08:54:58;;;;;;;5.72;4.70;;;;;;;29.63;65.18;100434.84;5003416;28;20037;-63
2023/08/25 08:57:31;;;;;;;8.82;5.47;;;;;;;29.75;64.51;100433.75;5000454;28;20180;-63
2023/08/25 08:59:59;;;;;;;8.02;4.97;;;;;;;29.74;64.05;100432.94;5001512;28;20033;-63
2023/08/25 09:02:29;;;;;;;7.78;5.28;;;;;;;29.75;63.29;100433.75;5000503;28;20412;-63
2023/08/25 09:04:58;;;;;;;5.45;4.95;;;;;;;29.80;62.91;100429.16;4998649;28;20167;-65
2023/08/25 09:07:31;;;;;;;5.53;4.10;;;;;;;29.75;62.53;100423.81;5009139;28;21326;-65
2023/08/25 09:09:58;;;;;;;5.07;4.40;;;;;;;29.81;62.44;100425.38;5014634;28;20062;-64
2023/08/25 09:12:23;;;;;;;7.47;4.68;;;;;;;29.96;62.12;100419.97;5015852;28;20120;-65
2023/08/25 09:14:50;;;;;;;5.07;4.57;;;;;;;30.02;61.79;100421.59;5006742;28;20047;-64
2023/08/25 09:17:16;;;;;;;5.65;5.13;;;;;;;29.83;61.03;100419.75;5006774;28;20052;-64
2023/08/25 09:19:42;;;;;;;7.13;5.85;;;;;;;29.76;62.38;100417.38;5023531;28;20037;-65
2023/08/25 09:22:13;;;;;;;7.45;5.57;;;;;;;29.66;63.36;100414.72;5038348;28;20041;-65
2023/08/25 09:24:42;;;;;;;6.72;5.00;;;;;;;29.64;63.71;100417.66;5031120;28;20087;-63
2023/08/25 09:27:24;;;;;;;9.65;5.50;;;;;;;29.59;62.98;100419.56;5029520;28;20421;-64
2023/08/25 09:30:03;;;;;;;5.38;4.93;;;;;;;29.91;61.17;100422.69;5021029;28;20037;-65
2023/08/25 09:32:30;;;;;;;6.68;5.72;;;;;;;29.91;62.28;100417.31;5014703;28;20477;-65
2023/08/25 09:34:56;;;;;;;6.65;5.63;;;;;;;29.92;62.40;100424.28;5015370;28;20034;-65
2023/08/25 09:37:23;;;;;;;5.90;5.40;;;;;;;29.79;62.93;100414.13;5021816;28;20034;-65
2023/08/25 09:39:48;;;;;;;5.40;4.88;;;;;;;29.78;63.11;100411.69;5021934;28;20036;-66
2023/08/25 09:42:14;;;;;;;6.65;4.90;;;;;;;29.88;62.69;100420.53;5025188;28;20033;-65
2023/08/25 09:44:40;;;;;;;6.50;5.50;;;;;;;30.00;62.59;100421.06;5015718;28;20367;-66
2023/08/25 09:47:06;;;;;;;10.23;5.03;;;;;;;30.05;63.19;100420.25;5013403;28;20034;-65
2023/08/25 09:49:39;;;;;;;7.90;5.22;;;;;;;30.00;62.68;100414.91;5020586;28;20084;-65
2023/08/25 09:52:06;;;;;;;7.72;5.68;;;;;;;29.96;62.82;100406.56;5024188;28;20132;-65
2023/08/25 09:54:33;;;;;;;7.03;5.78;;;;;;;30.04;62.25;100408.72;5020559;28;20040;-66
2023/08/25 09:57:00;;;;;;;5.78;5.28;;;;;;;30.33;61.06;100419.56;5018861;28;20408;-65
2023/08/25 09:59:27;;;;;;;8.18;5.45;;;;;;;30.33;62.46;100408.03;5026516;28;20061;-65
2023/08/25 10:01:53;;;;;;;7.45;5.85;;;;;;;30.27;63.05;100411.81;5030188;28;20087;-65
2023/08/25 10:04:18;;;;;;;9.60;5.22;;;;;;;30.25;63.05;100408.59;5030278;28;20073;-66
2023/08/25 10:06:44;;;;;;;5.80;4.55;;;;;;;30.24;62.33;100410.50;5026604;28;20065;-65
2023/08/25 10:09:10;;;;;;;6.15;5.00;;;;;;;30.32;62.45;100411.78;5032943;28;20116;-65
2023/08/25 10:11:40;;;;;;;11.40;5.25;;;;;;;30.21;62.09;100399.50;5025769;28;20482;-65
2023/08/25 10:14:10;;;;;;;8.02;5.70;;;;;;;30.35;61.04;100395.91;5027850;28;20036;-65
2023/08/25 10:16:51;;;;;;;7.57;5.10;;;;;;;30.45;61.91;100394.25;5028636;28;20026;-66
2023/08/25 10:19:28;;;;;;;7.43;5.28;;;;;;;30.48;61.94;100394.50;5025635;28;20030;-65
2023/08/25 10:21:58;;;;;;;6.97;5.13;;;;;;;30.37;61.41;100387.59;5023341;28;20058;-65
2023/08/25 10:24:26;;;;;;;9.15;4.95;;;;;;;30.40;61.62;100396.97;5027210;28;20041;-65
2023/08/25 10:26:52;;;;;;;6.63;5.57;;;;;;;30.47;62.13;100384.84;5032904;28;20033;-65
2023/08/25 10:29:22;;;;;;;10.52;5.38;;;;;;;30.38;61.63;100381.94;5028780;28;20050;-65
2023/08/25 10:31:58;;;;;;;7.43;6.22;;;;;;;30.29;61.88;100385.47;5027615;28;20404;-66
2023/08/25 10:34:36;;;;;;;8.70;5.45;;;;;;;30.27;62.15;100380.38;5032657;28;20120;-66
2023/08/25 10:37:10;;;;;;;6.45;5.55;;;;;;;30.25;62.25;100387.09;5025999;28;20049;-67
2023/08/25 10:39:49;;;;;;;6.82;5.40;;;;;;;30.29;62.61;100377.41;5029875;28;20041;-67
2023/08/25 10:42:31;;;;;;;6.90;5.13;;;;;;;30.32;62.45;100377.66;5025666;28;20033;-67
2023/08/25 10:45:04;;;;;;;6.03;5.43;;;;;;;30.26;62.93;100376.06;5024968;28;20056;-67
2023/08/25 10:47:30;;;;;;;6.80;4.88;;;;;;;30.26;63.88;100378.75;5029495;28;20040;-67
2023/08/25 10:50:00;;;;;;;6.22;5.22;;;;;;;30.36;63.43;100372.53;5028890;28;20038;-67
2023/08/25 10:52:26;;;;;;;7.40;5.45;;;;;;;30.32;63.81;100364.22;5024336;28;20163;-68
2023/08/25 10:54:53;;;;;;;6.43;5.82;;;;;;;30.49;63.67;100365.75;5034582;28;20520;-66
2023/08/25 10:57:29;;;;;;;7.70;5.60;;;;;;;30.53;62.08;100362.22;5030614;28;20478;-67
2023/08/25 11:00:24;;;;;;;13.15;5.53;;;;;;;30.59;61.04;100363.84;5033555;28;20494;-67
2023/08/25 11:02:50;;;;;;;8.90;5.13;;;;;;;30.61;61.34;100355.47;5031412;28;20116;-66
2023/08/25 11:05:33;;;;;;;5.22;4.82;;;;;;;30.54;61.52;100350.38;5026558;28;20113;-68
2023/08/25 11:08:03;;;;;;;5.43;4.88;;;;;;;30.50;63.25;100349.34;5024208;28;20049;-67
2023/08/25 11:10:31;;;;;;;7.95;5.43;;;;;;;30.58;63.15;100354.16;5022041;28;20046;-66
2023/08/25 11:13:00;;;;;;;6.88;6.22;;;;;;;30.65;62.68;100361.91;5020152;28;20480;-67
2023/08/25 11:15:26;;;;;;;6.70;5.93;;;;;;;30.75;61.48;100356.44;5029539;28;20299;-68
2023/08/25 11:17:53;;;;;;;10.20;5.55;;;;;;;30.76;61.46;100341.91;5027309;28;20025;-67
2023/08/25 11:20:19;;;;;;;8.63;5.85;;;;;;;30.85;60.49;100350.19;5022973;28;20110;-67
2023/08/25 11:22:52;;;;;;;8.15;5.50;;;;;;;30.92;60.93;100354.16;5017135;28;20040;-67
2023/08/25 11:25:17;;;;;;;7.38;5.15;;;;;;;30.93;60.17;100358.44;5031081;28;20030;-67